createdAt,value
2022-08-24T00:01:56.839Z,18.72
2022-08-24T00:04:25.068Z,18.64
2022-08-24T00:06:53.490Z,18.80
2022-08-24T00:09:21.727Z,18.80
2022-08-24T00:11:49.821Z,18.79
2022-08-24T00:14:19.187Z,18.78
2022-08-24T00:16:47.432Z,18.51
2022-08-24T00:19:16.307Z,18.72
2022-08-24T00:21:44.597Z,18.67
2022-08-24T00:24:12.795Z,18.13
2022-08-24T00:26:40.771Z,18.69
2022-08-24T00:29:08.893Z,18.50
2022-08-24T00:31:38.483Z,18.38
2022-08-24T00:34:06.823Z,18.26
2022-08-24T00:36:35.436Z,18.41
2022-08-24T00:39:05.154Z,18.45
2022-08-24T00:41:33.523Z,18.43
2022-08-24T00:44:04.959Z,17.22
2022-08-24T00:46:43.609Z,18.05
2022-08-24T00:49:18.482Z,18.22
2022-08-24T00:51:55.560Z,17.53
2022-08-24T00:54:27.494Z,17.99
2022-08-24T00:56:59.821Z,18.03
2022-08-24T00:59:32.672Z,18.11
2022-08-24T01:02:15.186Z,18.23
2022-08-24T01:04:50.120Z,18.30
2022-08-24T01:07:18.404Z,18.26
2022-08-24T01:09:47.060Z,18.27
2022-08-24T01:12:15.209Z,18.25
2022-08-24T01:14:43.828Z,18.02
2022-08-24T01:17:33.919Z,17.59
2022-08-24T01:20:07.284Z,18.08
2022-08-24T01:22:58.108Z,17.29
2022-08-24T01:25:29.919Z,18.01
2022-08-24T01:28:02.663Z,17.92
2022-08-24T01:30:36.252Z,17.95
2022-08-24T01:33:07.560Z,17.10
2022-08-24T01:35:37.185Z,17.83
2022-08-24T01:38:08.313Z,17.79
2022-08-24T01:40:41.261Z,17.83
2022-08-24T01:43:09.803Z,17.89
2022-08-24T01:45:38.618Z,17.06
2022-08-24T01:48:06.841Z,17.78
2022-08-24T01:50:35.040Z,17.68
2022-08-24T01:53:06.265Z,17.65
2022-08-24T01:55:37.680Z,17.67
2022-08-24T01:58:06.729Z,17.47
2022-08-24T02:00:35.292Z,17.64
2022-08-24T02:03:04.051Z,17.32
2022-08-24T02:05:32.302Z,17.36
2022-08-24T02:08:00.461Z,17.39
2022-08-24T02:10:29.629Z,17.33
2022-08-24T02:13:00.559Z,17.46
2022-08-24T02:15:31.117Z,17.28
2022-08-24T02:18:01.037Z,17.24
2022-08-24T02:20:30.351Z,17.30
2022-08-24T02:22:59.068Z,17.22
2022-08-24T02:25:30.412Z,17.30
2022-08-24T02:28:01.823Z,16.22
2022-08-24T02:30:31.917Z,17.32
2022-08-24T02:33:01.021Z,17.19
2022-08-24T02:35:31.188Z,16.61
2022-08-24T02:37:59.991Z,17.21
2022-08-24T02:40:29.736Z,17.20
2022-08-24T02:42:59.431Z,17.13
2022-08-24T02:45:27.472Z,17.18
2022-08-24T02:47:55.896Z,17.17
2022-08-24T02:50:26.150Z,17.02
2022-08-24T02:52:54.329Z,17.09
2022-08-24T02:55:22.815Z,17.11
2022-08-24T02:57:53.222Z,17.09
2022-08-24T03:00:24.103Z,17.11
2022-08-24T03:02:53.134Z,17.12
2022-08-24T03:05:22.787Z,17.10
2022-08-24T03:07:52.255Z,17.16
2022-08-24T03:10:21.236Z,17.30
2022-08-24T03:12:50.347Z,16.71
2022-08-24T03:15:23.572Z,17.19
2022-08-24T03:17:52.570Z,16.92
2022-08-24T03:20:23.874Z,16.98
2022-08-24T03:22:53.119Z,16.17
2022-08-24T03:25:24.841Z,16.90
2022-08-24T03:27:53.197Z,16.84
2022-08-24T03:30:23.571Z,16.79
2022-08-24T03:32:51.973Z,16.73
2022-08-24T03:35:21.976Z,16.41
2022-08-24T03:37:50.906Z,16.75
2022-08-24T03:40:22.293Z,16.81
2022-08-24T03:42:56.502Z,16.77
2022-08-24T03:45:26.135Z,16.76
2022-08-24T03:47:55.716Z,16.73
2022-08-24T03:50:25.465Z,15.66
2022-08-24T03:52:53.932Z,16.64
2022-08-24T03:55:22.590Z,16.67
2022-08-24T03:57:50.752Z,16.48
2022-08-24T04:00:19.207Z,16.55
2022-08-24T04:02:57.558Z,16.45
2022-08-24T04:05:27.735Z,14.50
2022-08-24T04:08:03.352Z,16.35
2022-08-24T04:10:31.483Z,16.43
2022-08-24T04:13:01.551Z,16.44
2022-08-24T04:15:31.733Z,16.46
2022-08-24T04:18:01.088Z,16.49
2022-08-24T04:20:29.003Z,16.57
2022-08-24T04:22:57.680Z,16.40
2022-08-24T04:25:25.779Z,16.50
2022-08-24T04:27:53.874Z,16.56
2022-08-24T04:30:24.676Z,16.36
2022-08-24T04:33:13.705Z,16.39
2022-08-24T04:35:46.017Z,16.31
2022-08-24T04:38:14.839Z,16.33
2022-08-24T04:40:49.197Z,16.29
2022-08-24T04:43:19.979Z,16.23
2022-08-24T04:45:50.442Z,16.34
2022-08-24T04:48:20.333Z,16.41
2022-08-24T04:50:48.265Z,16.56
2022-08-24T04:53:17.120Z,16.69
2022-08-24T04:55:52.705Z,17.06
2022-08-24T04:58:20.964Z,17.13
2022-08-24T05:00:49.152Z,17.17
2022-08-24T05:03:17.773Z,17.20
2022-08-24T05:05:49.606Z,17.29
2022-08-24T05:08:19.281Z,17.43
2022-08-24T05:10:50.589Z,17.47
2022-08-24T05:13:19.719Z,17.50
2022-08-24T05:15:49.784Z,17.59
2022-08-24T05:18:18.286Z,17.65
2022-08-24T05:20:48.998Z,17.64
2022-08-24T05:23:19.766Z,17.81
2022-08-24T05:25:48.394Z,17.95
2022-08-24T05:28:17.852Z,18.09
2022-08-24T05:30:46.004Z,18.16
2022-08-24T05:33:14.389Z,18.01
2022-08-24T05:35:43.812Z,18.22
2022-08-24T05:38:14.422Z,18.29
2022-08-24T05:40:43.311Z,18.24
2022-08-24T05:43:11.756Z,18.30
2022-08-24T05:45:42.860Z,18.24
2022-08-24T05:48:12.056Z,18.03
2022-08-24T05:50:59.201Z,18.32
2022-08-24T05:53:33.422Z,18.36
2022-08-24T05:56:04.309Z,18.52
2022-08-24T05:58:33.673Z,18.44
2022-08-24T06:01:08.523Z,18.26
2022-08-24T06:03:36.620Z,18.43
2022-08-24T06:06:08.553Z,18.85
2022-08-24T06:08:41.496Z,18.48
2022-08-24T06:11:12.145Z,18.82
2022-08-24T06:13:41.200Z,18.74
2022-08-24T06:16:21.618Z,19.15
2022-08-24T06:18:50.886Z,19.28
2022-08-24T06:21:20.833Z,19.34
2022-08-24T06:23:51.373Z,19.39
2022-08-24T06:26:37.098Z,19.62
2022-08-24T06:29:05.308Z,19.56
2022-08-24T06:31:39.633Z,19.64
2022-08-24T06:34:11.680Z,19.89
2022-08-24T06:36:40.218Z,20.06
2022-08-24T06:39:10.809Z,20.21
2022-08-24T06:41:44.572Z,20.00
2022-08-24T06:44:13.550Z,20.37
2022-08-24T06:46:50.080Z,20.58
2022-08-24T06:49:19.176Z,20.89
2022-08-24T06:51:50.575Z,20.95
2022-08-24T06:54:21.847Z,21.37
2022-08-24T06:56:50.672Z,21.41
2022-08-24T06:59:22.282Z,21.49
2022-08-24T07:01:50.577Z,21.55
2022-08-24T07:04:26.219Z,21.65
2022-08-24T07:07:25.717Z,21.84
2022-08-24T07:09:57.946Z,22.12
2022-08-24T07:12:27.602Z,22.29
2022-08-24T07:14:55.945Z,21.87
2022-08-24T07:17:24.270Z,22.51
2022-08-24T07:19:52.901Z,22.51
2022-08-24T07:22:41.251Z,22.91
2022-08-24T07:25:24.537Z,23.14
2022-08-24T07:27:53.652Z,23.02
2022-08-24T07:30:27.359Z,22.73
2022-08-24T07:32:58.060Z,23.44
2022-08-24T07:35:29.154Z,23.76
2022-08-24T07:38:05.982Z,23.98
2022-08-24T07:41:14.243Z,23.90
2022-08-24T07:43:40.961Z,24.14
2022-08-24T07:46:19.546Z,23.92
2022-08-24T07:48:48.571Z,24.34
2022-08-24T07:51:20.860Z,24.50
2022-08-24T07:53:53.895Z,24.21
2022-08-24T07:56:29.579Z,24.50
2022-08-24T07:59:01.005Z,24.31
2022-08-24T08:01:29.905Z,23.91
2022-08-24T08:04:09.784Z,24.74
2022-08-24T08:06:38.385Z,24.78
2022-08-24T08:09:09.725Z,25.09
2022-08-24T08:11:41.251Z,24.98
2022-08-24T08:14:20.157Z,25.00
2022-08-24T08:16:57.084Z,25.11
2022-08-24T09:13:36.509Z,27.60
2022-08-24T09:16:19.588Z,27.44
2022-08-24T09:19:16.071Z,27.33
2022-08-24T09:21:56.748Z,27.69
2022-08-24T09:24:35.726Z,27.74
2022-08-24T09:27:22.351Z,28.16
2022-08-24T09:30:10.356Z,28.20
2022-08-24T09:32:55.781Z,28.13
2022-08-24T09:35:33.063Z,27.97
2022-08-24T09:38:08.261Z,28.21
2022-08-24T09:40:44.529Z,28.18
2022-08-24T09:43:36.879Z,28.33
2022-08-24T09:46:52.354Z,28.71
2022-08-24T09:49:51.750Z,28.65
2022-08-24T09:52:55.078Z,28.58
2022-08-24T09:55:58.217Z,28.77
2022-08-24T09:58:42.739Z,28.59
2022-08-24T10:01:20.397Z,28.76
2022-08-24T10:04:00.358Z,28.64
2022-08-24T10:06:36.075Z,28.33
2022-08-24T10:09:27.804Z,28.59
2022-08-24T10:12:05.651Z,28.72
2022-08-24T10:14:46.916Z,28.42
2022-08-24T10:17:21.640Z,28.79
2022-08-24T10:20:01.929Z,28.95
2022-08-24T10:22:50.292Z,28.94
2022-08-24T10:25:36.027Z,28.96
2022-08-24T10:28:32.462Z,28.34
2022-08-24T10:31:07.815Z,28.32
2022-08-24T10:33:54.728Z,28.40
2022-08-24T10:36:57.298Z,28.42
2022-08-24T10:39:52.726Z,27.97
2022-08-24T10:43:02.427Z,28.41
2022-08-24T10:45:54.787Z,28.27
2022-08-24T10:48:49.611Z,28.47
2022-08-24T10:51:36.104Z,28.62
2022-08-24T10:54:05.346Z,28.67
2022-08-24T10:56:42.574Z,28.68
2022-08-24T10:59:23.686Z,28.75
2022-08-24T11:02:12.942Z,28.54
2022-08-24T11:04:41.906Z,28.74
2022-08-24T11:07:18.525Z,28.69
2022-08-24T11:09:54.118Z,28.84
2022-08-24T11:12:29.948Z,28.97
2022-08-24T11:15:03.068Z,28.96
2022-08-24T11:17:34.762Z,29.25
2022-08-24T11:20:03.160Z,29.10
2022-08-24T11:22:36.924Z,29.22
2022-08-24T11:25:11.706Z,29.44
2022-08-24T11:27:44.389Z,29.07
2022-08-24T11:30:16.213Z,29.19
2022-08-24T11:32:47.951Z,29.08
2022-08-24T11:35:26.388Z,29.20
2022-08-24T11:37:56.801Z,29.03
2022-08-24T11:40:29.431Z,29.05
2022-08-24T11:43:19.382Z,29.13
2022-08-24T11:45:53.864Z,29.23
2022-08-24T11:48:36.175Z,29.39
2022-08-24T11:51:12.100Z,29.22
2022-08-24T11:54:01.983Z,29.07
2022-08-24T11:56:39.860Z,29.48
2022-08-24T11:59:22.394Z,29.45
2022-08-24T12:01:55.001Z,29.25
2022-08-24T12:04:37.300Z,29.34
2022-08-24T12:07:16.303Z,28.92
2022-08-24T12:10:02.224Z,29.42
2022-08-24T12:12:37.155Z,29.42
2022-08-24T12:15:12.166Z,29.32
2022-08-24T12:17:46.648Z,29.36
2022-08-24T12:20:25.827Z,29.44
2022-08-24T12:22:58.086Z,29.45
2022-08-24T12:25:45.518Z,29.46
2022-08-24T12:28:16.046Z,29.67
2022-08-24T12:30:46.766Z,29.08
2022-08-24T12:33:18.861Z,29.66
2022-08-24T12:35:50.794Z,29.72
2022-08-24T12:38:25.023Z,29.62
2022-08-24T12:40:57.648Z,29.65
2022-08-24T12:43:33.364Z,29.80
2022-08-24T12:46:03.889Z,29.86
2022-08-24T12:48:39.546Z,29.82
2022-08-24T12:51:21.078Z,29.86
2022-08-24T12:54:23.711Z,30.06
2022-08-24T12:57:13.754Z,30.17
2022-08-24T12:59:46.549Z,30.23
2022-08-24T13:02:31.864Z,29.69
2022-08-24T13:05:10.248Z,30.30
2022-08-24T13:07:45.672Z,30.23
2022-08-24T13:10:38.976Z,30.11
2022-08-24T13:13:20.870Z,30.17
2022-08-24T13:16:07.170Z,30.02
2022-08-24T13:19:11.385Z,30.23
2022-08-24T13:21:46.293Z,29.99
2022-08-24T13:24:51.267Z,29.72
2022-08-24T13:27:55.127Z,29.74
2022-08-24T13:30:30.604Z,29.80
2022-08-24T13:33:04.662Z,29.59
2022-08-24T13:35:58.331Z,29.65
2022-08-24T13:38:42.716Z,29.67
2022-08-24T13:41:22.109Z,28.91
2022-08-24T13:43:59.231Z,29.44
2022-08-24T13:46:45.936Z,29.19
2022-08-24T13:49:25.465Z,29.31
2022-08-24T13:52:04.923Z,29.81
2022-08-24T13:54:43.907Z,29.73
2022-08-24T13:57:35.561Z,29.86
2022-08-24T14:00:18.046Z,29.76
2022-08-24T14:03:03.093Z,29.73
2022-08-24T14:05:38.406Z,29.84
2022-08-24T14:08:26.563Z,29.93
2022-08-24T14:11:08.330Z,30.14
2022-08-24T14:13:50.248Z,30.17
2022-08-24T14:16:53.772Z,30.25
2022-08-24T14:19:29.595Z,30.09
2022-08-24T14:22:04.343Z,29.96
2022-08-24T14:24:45.875Z,29.86
2022-08-24T14:27:37.238Z,30.01
2022-08-24T14:30:38.043Z,29.90
2022-08-24T14:33:13.207Z,29.89
2022-08-24T14:35:48.527Z,29.79
2022-08-24T14:38:48.605Z,29.56
2022-08-24T14:41:30.604Z,29.52
2022-08-24T14:44:26.493Z,29.56
2022-08-24T14:47:03.545Z,29.54
2022-08-24T14:49:38.974Z,29.63
2022-08-24T14:52:22.239Z,29.63
2022-08-24T14:55:08.100Z,29.88
2022-08-24T14:57:53.331Z,29.96
2022-08-24T15:00:25.167Z,29.93
2022-08-24T15:03:16.697Z,30.01
2022-08-24T15:06:16.011Z,30.05
2022-08-24T15:08:43.865Z,30.13
2022-08-24T15:11:14.124Z,29.81
2022-08-24T15:13:48.399Z,30.05
2022-08-24T15:16:22.487Z,29.93
2022-08-24T15:18:59.928Z,30.09
2022-08-24T15:21:37.524Z,30.13
2022-08-24T15:24:28.389Z,30.16
2022-08-24T15:27:03.436Z,30.21
2022-08-24T15:29:35.446Z,30.24
2022-08-24T15:32:08.521Z,30.15
2022-08-24T15:34:41.731Z,30.06
2022-08-24T15:37:10.083Z,30.15
2022-08-24T15:39:38.400Z,30.05
2022-08-24T15:42:13.291Z,30.02
2022-08-24T15:44:45.536Z,30.03
2022-08-24T15:47:20.909Z,30.11
2022-08-24T15:49:52.701Z,29.61
2022-08-24T15:52:48.340Z,30.03
2022-08-24T15:55:36.352Z,29.93
2022-08-24T15:58:19.818Z,29.71
2022-08-24T16:01:06.921Z,29.94
2022-08-24T16:03:48.672Z,29.88
2022-08-24T16:06:25.930Z,29.88
2022-08-24T16:09:01.048Z,29.89
2022-08-24T16:11:33.186Z,29.94
2022-08-24T16:14:03.292Z,29.80
2022-08-24T16:16:38.658Z,29.82
2022-08-24T16:19:09.245Z,29.79
2022-08-24T16:21:47.466Z,29.74
2022-08-24T16:24:28.675Z,29.81
2022-08-24T16:27:01.006Z,29.67
2022-08-24T16:29:50.362Z,29.68
2022-08-24T16:32:30.513Z,29.47
2022-08-24T16:35:16.938Z,29.60
2022-08-24T16:37:45.005Z,29.51
2022-08-24T16:40:14.134Z,29.48
2022-08-24T16:42:42.617Z,29.50
2022-08-24T16:45:17.293Z,29.47
2022-08-24T16:47:48.017Z,29.48
2022-08-24T16:50:17.546Z,29.30
2022-08-24T16:52:45.641Z,29.41
2022-08-24T16:55:14.789Z,29.30
2022-08-24T16:57:44.089Z,28.93
2022-08-24T17:00:17.160Z,29.06
2022-08-24T17:02:48.228Z,29.07
2022-08-24T17:05:17.779Z,29.02
2022-08-24T17:07:46.743Z,28.79
2022-08-24T17:10:18.311Z,29.01
2022-08-24T17:12:46.769Z,28.78
2022-08-24T17:15:16.233Z,28.97
2022-08-24T17:17:55.379Z,28.82
2022-08-24T17:20:23.877Z,28.86
2022-08-24T17:22:52.020Z,28.81
2022-08-24T17:25:20.143Z,28.61
2022-08-24T17:27:48.568Z,28.61
2022-08-24T17:30:18.523Z,28.62
2022-08-24T17:32:48.657Z,28.10
2022-08-24T17:35:17.220Z,28.34
2022-08-24T17:37:45.715Z,28.45
2022-08-24T17:40:17.001Z,27.97
2022-08-24T17:42:51.206Z,28.32
2022-08-24T17:45:20.433Z,28.31
2022-08-24T17:47:51.904Z,28.27
2022-08-24T17:50:21.672Z,27.93
2022-08-24T17:52:50.387Z,28.04
2022-08-24T17:55:27.451Z,27.95
2022-08-24T17:57:55.469Z,27.92
2022-08-24T18:00:23.639Z,27.79
2022-08-24T18:02:53.035Z,27.87
2022-08-24T18:05:21.836Z,27.80
2022-08-24T18:07:54.232Z,27.28
2022-08-24T18:10:25.386Z,27.59
2022-08-24T18:12:53.728Z,27.48
2022-08-24T18:15:22.823Z,27.46
2022-08-24T18:18:08.319Z,27.11
2022-08-24T18:20:41.416Z,27.21
2022-08-24T18:23:11.472Z,27.00
2022-08-24T18:25:43.983Z,26.34
2022-08-24T18:28:12.621Z,26.80
2022-08-24T18:30:41.696Z,26.77
2022-08-24T18:33:14.043Z,25.66
2022-08-24T18:35:42.237Z,26.46
2022-08-24T18:38:10.350Z,25.69
2022-08-24T18:40:38.946Z,26.19
2022-08-24T18:43:08.164Z,26.12
2022-08-24T18:45:36.709Z,26.01
2022-08-24T18:48:05.857Z,25.89
2022-08-24T18:50:40.091Z,25.82
2022-08-24T18:53:10.359Z,25.76
2022-08-24T18:55:38.994Z,25.62
2022-08-24T18:58:07.553Z,25.56
2022-08-24T19:00:36.162Z,25.38
2022-08-24T19:03:07.404Z,25.19
2022-08-24T19:05:38.296Z,25.07
2022-08-24T19:08:06.507Z,25.02
2022-08-24T19:10:38.096Z,24.94
2022-08-24T19:13:10.121Z,24.84
2022-08-24T19:15:40.173Z,24.91
2022-08-24T19:18:09.799Z,24.80
2022-08-24T19:20:44.704Z,24.50
2022-08-24T19:23:21.178Z,24.49
2022-08-24T19:25:49.943Z,24.31
2022-08-24T19:28:18.171Z,24.09
2022-08-24T19:30:48.873Z,24.24
2022-08-24T19:33:23.374Z,24.25
2022-08-24T19:35:53.381Z,24.19
2022-08-24T19:38:25.803Z,23.82
2022-08-24T19:40:55.556Z,24.02
2022-08-24T19:43:26.310Z,23.96
2022-08-24T19:46:05.531Z,23.50
2022-08-24T19:48:35.744Z,23.90
2022-08-24T19:51:07.655Z,23.48
2022-08-24T19:53:38.037Z,23.46
2022-08-24T19:56:06.823Z,23.57
2022-08-24T19:58:40.750Z,23.47
2022-08-24T20:01:13.432Z,23.21
2022-08-24T20:03:41.714Z,23.21
2022-08-24T20:06:11.876Z,22.94
2022-08-24T20:08:40.893Z,23.24
2022-08-24T20:11:10.023Z,22.96
2022-08-24T20:13:38.165Z,22.84
2022-08-24T20:16:10.600Z,22.91
2022-08-24T20:18:39.071Z,23.18
2022-08-24T20:21:07.797Z,23.10
2022-08-24T20:23:37.464Z,23.15
2022-08-24T20:26:08.163Z,23.07
2022-08-24T20:28:41.194Z,23.06
2022-08-24T20:31:09.907Z,22.97
2022-08-24T20:33:37.907Z,22.82
2022-08-24T20:36:06.696Z,22.75
2022-08-24T20:38:35.629Z,21.89
2022-08-24T20:41:05.239Z,22.68
2022-08-24T20:43:33.272Z,22.58
2022-08-24T20:46:01.834Z,22.62
2022-08-24T20:48:33.822Z,21.48
2022-08-24T20:51:02.918Z,22.78
2022-08-24T20:53:31.033Z,22.82
2022-08-24T20:56:02.800Z,22.63
2022-08-24T20:58:32.502Z,22.32
2022-08-24T21:01:00.739Z,22.14
2022-08-24T21:03:29.070Z,22.29
2022-08-24T21:05:57.321Z,22.19
2022-08-24T21:08:25.950Z,22.12
2022-08-24T21:10:54.954Z,22.05
2022-08-24T21:13:23.102Z,22.04
2022-08-24T21:15:52.957Z,21.43
2022-08-24T21:18:21.342Z,21.64
2022-08-24T21:21:03.337Z,21.38
2022-08-24T21:23:32.574Z,21.72
2022-08-24T21:26:01.798Z,21.54
2022-08-24T21:28:30.578Z,21.49
2022-08-24T21:31:05.112Z,21.14
2022-08-24T21:33:51.770Z,21.53
2022-08-24T21:36:21.379Z,21.43
2022-08-24T21:38:50.917Z,21.11
2022-08-24T21:41:19.406Z,21.48
2022-08-24T21:43:47.345Z,21.38
2022-08-24T21:46:17.170Z,21.35
2022-08-24T21:48:46.178Z,21.26
2022-08-24T21:51:14.314Z,21.11
2022-08-24T21:53:42.288Z,21.14
2022-08-24T21:56:10.670Z,21.29
2022-08-24T21:58:38.674Z,21.29
2022-08-24T22:01:06.973Z,20.02
2022-08-24T22:03:39.862Z,20.88
2022-08-24T22:06:09.073Z,20.86
2022-08-24T22:08:37.268Z,20.89
2022-08-24T22:11:06.377Z,20.80
2022-08-24T22:13:34.934Z,20.58
2022-08-24T22:16:03.765Z,20.82
2022-08-24T22:18:32.724Z,20.87
2022-08-24T22:21:06.693Z,20.76
2022-08-24T22:23:34.937Z,20.74
2022-08-24T22:26:02.990Z,20.68
2022-08-24T22:28:30.947Z,20.53
2022-08-24T22:30:59.401Z,20.26
2022-08-24T22:33:28.904Z,20.43
2022-08-24T22:35:56.967Z,19.89
2022-08-24T22:38:26.521Z,20.26
2022-08-24T22:40:55.853Z,20.09
2022-08-24T22:43:43.728Z,20.05
2022-08-24T22:46:12.493Z,20.02
2022-08-24T22:48:40.589Z,20.00
2022-08-24T22:51:09.486Z,19.90
2022-08-24T22:53:39.192Z,19.83
2022-08-24T22:56:15.280Z,19.91
2022-08-24T22:58:43.280Z,19.43
2022-08-24T23:01:11.293Z,19.95
2022-08-24T23:03:39.380Z,19.69
2022-08-24T23:06:07.833Z,19.96
2022-08-24T23:08:35.822Z,19.93
2022-08-24T23:11:05.307Z,19.73
2022-08-24T23:13:33.661Z,19.83
2022-08-24T23:16:02.077Z,19.71
2022-08-24T23:18:47.298Z,19.36
2022-08-24T23:21:16.279Z,19.36
2022-08-24T23:23:44.592Z,19.56
2022-08-24T23:26:16.046Z,19.42
2022-08-24T23:28:50.258Z,19.55
2022-08-24T23:31:20.730Z,19.55
2022-08-24T23:33:48.824Z,19.59
2022-08-24T23:36:21.038Z,19.59
2022-08-24T23:38:49.648Z,19.52
2022-08-24T23:41:20.858Z,19.48
2022-08-24T23:43:49.055Z,19.26
2022-08-24T23:46:18.093Z,19.27
2022-08-24T23:48:55.278Z,19.22
2022-08-24T23:51:24.347Z,19.14
2022-08-24T23:53:53.255Z,19.13
2022-08-24T23:56:25.305Z,18.27
2022-08-24T23:58:54.357Z,18.90
